FYWH/WDH METAR and TAF weather

Enter ICAO airport designator
Station Type Date Time Source
FYWH METAR 2018/01/21 12:00 UTC NOAA

FYWH 211200Z 34009KT 9999 FEW040CB BKN045TCU 27/09 Q1019 BECMG -TSRA SCT040CB


Station Type Date Time Source
FYWH Decoded METAR 2018/01/21 12:00 UTC NOAA

J. G. Strijdom, Namibia (FYWH) 22-29S 017-28E 1700M
Jan 21, 2018 - 07:00 AM EST / 2018.01.21 1200 UTC
Wind: from the NNW (340 degrees) at 10 MPH (9 KT):0
Visibility: greater than 7 mile(s):0
Sky conditions: mostly cloudy
Weather: Cumulonimbus clouds, towering cumulus clouds observed
Temperature: 80 F (27 C)
Dew Point: 48 F (9 C)
Relative Humidity: 32%
Pressure (altimeter): 30.09 in. Hg (1019 hPa)
ob: FYWH 211200Z 34009KT 9999 FEW040CB BKN045TCU 27/09 Q1019 BECMG -TSRA SCT040CB
cycle: 12

Station Type Date Time Source
FYWH TAF 2018/01/21 12:09 UTC NOAA

TAF FYWH 211000Z 2112/2218 34008KT 9999 FEW040CB SCT045TCU
TEMPO 2115/2124 24007KT -TSRA FEW040CB
BECMG 2200/2202 NSW FEW030
BECMG 2206/2208 04004KT CAVOK
BECMG 2209/2211 32008KT SCT045


Example: see airport list